Time;durP1;ratioP1;P1;durP2;ratioP2;P2;SDS_P1;SDS_P2;PMS_P1;PMS_P2;Temp;Humidity;BMP_temperature;BMP_pressure;BME280_temperature;BME280_humidity;BME280_pressure;Samples;Min_cycle;Max_cycle;Signal;HPM_P1;HPM_P2
2022/02/11 00:07:32;;;;;;;45.88;5.18;;;;;;;;;;4970675;28;20041;-31
2022/02/11 00:09:59;;;;;;;67.50;7.43;;;;;;;;;;4968437;28;20539;-31
2022/02/11 00:12:27;;;;;;;69.93;6.93;;;;;;;;;;4969953;28;20031;-31
2022/02/11 00:17:22;;;;;;;80.22;7.30;;;;;;;;;;4968279;28;20134;-32
2022/02/11 00:19:49;;;;;;;67.57;6.63;;;;;;;;;;4969776;28;20027;-32
2022/02/11 00:22:16;;;;;;;60.03;5.72;;;;;;;;;;4972089;28;20026;-33
2022/02/11 00:24:43;;;;;;;75.75;6.40;;;;;;;;;;4970256;28;20030;-32
2022/02/11 00:33:18;;;;;;;65.57;5.55;;;;;;;;;;4958964;28;20030;-33
2022/02/11 00:35:57;;;;;;;54.90;5.85;;;;;;;;;;4974541;28;20123;-33
2022/02/11 00:38:46;;;;;;;64.20;5.40;;;;;;;;;;4975686;28;20034;-32
2022/02/11 01:03:05;;;;;;;50.50;4.55;;;;;;;;;;4966576;28;20851;-33
2022/02/11 01:05:32;;;;;;;40.40;4.60;;;;;;;;;;4972432;28;20034;-32
2022/02/11 01:07:59;;;;;;;73.00;7.93;;;;;;;;;;4972211;28;20039;-34
2022/02/11 01:10:27;;;;;;;69.13;6.20;;;;;;;;;;4972121;28;20031;-32
2022/02/11 01:12:54;;;;;;;57.47;5.47;;;;;;;;;;4980205;28;20085;-34
2022/02/11 01:15:22;;;;;;;48.50;4.63;;;;;;;;;;4981110;28;20534;-35
2022/02/11 01:17:54;;;;;;;36.95;4.13;;;;;;;;;;4978986;28;20105;-35
2022/02/11 01:20:39;;;;;;;35.65;4.88;;;;;;;;;;4974033;28;20035;-33
2022/02/11 01:28:15;;;;;;;58.15;5.07;;;;;;;;;;4953955;29;20130;-33
2022/02/11 01:38:35;;;;;;;47.15;5.20;;;;;;;;;;4952610;29;20532;-32
2022/02/11 01:49:35;;;;;;;31.50;3.58;;;;;;;;;;4952972;29;20031;-33
2022/02/11 01:57:29;;;;;;;31.30;3.75;;;;;;;;;;4956471;28;20039;-34
2022/02/11 02:26:36;;;;;;;41.05;4.53;;;;;;;;;;4969870;28;20041;-32
2022/02/11 02:43:27;;;;;;;23.67;4.10;;;;;;;;;;4970897;28;20031;-31
2022/02/11 02:56:45;;;;;;;25.77;3.45;;;;;;;;;;4969642;28;20053;-31
2022/02/11 02:59:57;;;;;;;28.85;3.60;;;;;;;;;;4970989;28;20030;-33
2022/02/11 04:21:19;;;;;;;12.55;2.55;;;;;;;;;;4970958;28;20495;-29
2022/02/11 04:56:41;;;;;;;13.18;2.50;;;;;;;;;;4975700;28;20630;-29
2022/02/11 05:01:53;;;;;;;15.73;2.47;;;;;;;;;;4975106;28;20082;-30
2022/02/11 05:04:20;;;;;;;12.75;2.65;;;;;;;;;;4975576;28;20030;-31
2022/02/11 05:06:47;;;;;;;14.15;2.50;;;;;;;;;;4975120;28;20039;-30
2022/02/11 05:09:14;;;;;;;19.55;2.80;;;;;;;;;;4975915;28;20031;-29
2022/02/11 05:11:41;;;;;;;14.93;3.03;;;;;;;;;;4975207;28;20039;-29
2022/02/11 05:14:09;;;;;;;13.05;2.72;;;;;;;;;;4974738;28;20031;-31
2022/02/11 05:16:36;;;;;;;18.60;3.08;;;;;;;;;;4975692;28;20038;-31
2022/02/11 05:19:03;;;;;;;17.25;3.17;;;;;;;;;;4975048;28;20041;-29
2022/02/11 05:21:30;;;;;;;18.52;3.10;;;;;;;;;;4975042;28;20524;-29
2022/02/11 05:23:57;;;;;;;14.48;2.75;;;;;;;;;;4974681;28;20038;-31
2022/02/11 05:26:24;;;;;;;12.82;2.35;;;;;;;;;;4975047;28;20065;-31
2022/02/11 05:28:51;;;;;;;13.63;2.55;;;;;;;;;;4975120;28;20039;-30
2022/02/11 05:31:18;;;;;;;10.40;2.70;;;;;;;;;;4975255;28;20038;-31
2022/02/11 05:33:47;;;;;;;13.95;2.42;;;;;;;;;;4974318;28;20039;-31
2022/02/11 05:36:15;;;;;;;10.95;2.45;;;;;;;;;;4975131;28;20046;-31
2022/02/11 05:38:42;;;;;;;13.32;2.80;;;;;;;;;;4974532;28;20030;-29
2022/02/11 05:41:10;;;;;;;14.63;2.30;;;;;;;;;;4975047;28;20022;-29
2022/02/11 05:43:40;;;;;;;12.60;2.75;;;;;;;;;;4974340;28;20058;-30
2022/02/11 05:46:08;;;;;;;11.50;2.25;;;;;;;;;;4974694;28;21370;-31
2022/02/11 05:48:36;;;;;;;13.07;2.92;;;;;;;;;;4974659;28;20413;-29
2022/02/11 05:51:03;;;;;;;16.20;2.65;;;;;;;;;;4973167;28;20034;-31
2022/02/11 05:53:30;;;;;;;19.70;3.00;;;;;;;;;;4974655;28;20051;-31
2022/02/11 05:55:57;;;;;;;15.63;2.55;;;;;;;;;;4974601;28;20019;-29
2022/02/11 05:58:24;;;;;;;12.50;2.72;;;;;;;;;;4974590;28;20489;-29
2022/02/11 06:00:53;;;;;;;10.68;2.67;;;;;;;;;;4974126;28;20540;-29
2022/02/11 06:03:20;;;;;;;15.20;2.75;;;;;;;;;;4974183;28;20447;-29
2022/02/11 06:05:47;;;;;;;11.82;2.80;;;;;;;;;;4973873;28;20058;-29
2022/02/11 06:08:14;;;;;;;13.68;2.58;;;;;;;;;;4974761;28;20043;-29
2022/02/11 06:10:41;;;;;;;12.43;2.67;;;;;;;;;;4973707;28;20039;-29
2022/02/11 06:13:08;;;;;;;11.55;2.50;;;;;;;;;;4974685;28;20035;-29
2022/02/11 06:15:35;;;;;;;14.88;2.40;;;;;;;;;;4973645;28;20474;-29
2022/02/11 06:18:02;;;;;;;17.52;2.58;;;;;;;;;;4974324;28;20029;-29
2022/02/11 06:20:29;;;;;;;17.17;3.03;;;;;;;;;;4974125;28;20027;-30
2022/02/11 06:22:57;;;;;;;14.05;2.45;;;;;;;;;;4973756;28;20031;-31
2022/02/11 06:25:24;;;;;;;18.23;2.58;;;;;;;;;;4974080;28;20082;-31
2022/02/11 06:27:51;;;;;;;11.18;2.30;;;;;;;;;;4973846;28;20035;-29
2022/02/11 06:30:18;;;;;;;12.40;2.58;;;;;;;;;;4974024;28;20129;-29
2022/02/11 06:32:45;;;;;;;13.98;2.67;;;;;;;;;;4973918;28;20027;-31
2022/02/11 06:35:13;;;;;;;14.75;3.13;;;;;;;;;;4973142;28;20077;-31
2022/02/11 06:37:45;;;;;;;9.13;2.28;;;;;;;;;;4973830;28;20018;-31
2022/02/11 06:40:13;;;;;;;21.90;3.08;;;;;;;;;;4973743;28;20094;-31
2022/02/11 06:42:41;;;;;;;14.88;2.22;;;;;;;;;;4973499;28;20031;-31
2022/02/11 06:45:08;;;;;;;9.95;2.45;;;;;;;;;;4973957;28;20019;-31
2022/02/11 06:47:35;;;;;;;10.63;2.78;;;;;;;;;;4972728;28;20031;-29
2022/02/11 06:50:02;;;;;;;16.73;2.67;;;;;;;;;;4974159;28;20027;-29
2022/02/11 06:52:29;;;;;;;13.43;2.72;;;;;;;;;;4972980;28;20034;-30
2022/02/11 06:54:56;;;;;;;10.48;2.50;;;;;;;;;;4973907;28;20026;-31
2022/02/11 06:57:23;;;;;;;12.02;2.65;;;;;;;;;;4973369;28;20539;-29
2022/02/11 06:59:50;;;;;;;11.98;2.42;;;;;;;;;;4973064;28;20393;-29
2022/02/11 07:02:18;;;;;;;15.23;2.72;;;;;;;;;;4972880;28;20834;-30
2022/02/11 07:04:46;;;;;;;14.75;2.22;;;;;;;;;;4972642;28;20039;-31
2022/02/11 07:07:13;;;;;;;12.68;2.42;;;;;;;;;;4973568;28;20026;-29
2022/02/11 07:09:40;;;;;;;10.75;2.33;;;;;;;;;;4973385;28;20058;-29
2022/02/11 07:12:07;;;;;;;12.63;2.85;;;;;;;;;;4973054;28;20037;-29
2022/02/11 07:14:34;;;;;;;15.07;2.40;;;;;;;;;;4972442;28;20477;-29
2022/02/11 07:17:01;;;;;;;10.57;2.50;;;;;;;;;;4955683;28;20142;-29
2022/02/11 07:19:30;;;;;;;17.50;2.25;;;;;;;;;;4972800;28;20054;-29
2022/02/11 07:22:01;;;;;;;9.05;2.35;;;;;;;;;;4973122;28;20038;-29
2022/02/11 07:24:28;;;;;;;8.60;2.25;;;;;;;;;;4972404;28;20501;-31
2022/02/11 07:26:55;;;;;;;9.35;2.45;;;;;;;;;;4972969;28;20030;-31
2022/02/11 07:29:23;;;;;;;12.63;2.53;;;;;;;;;;4972542;28;20030;-31
2022/02/11 07:31:50;;;;;;;14.88;2.83;;;;;;;;;;4973101;28;20030;-31
2022/02/11 07:34:17;;;;;;;12.57;3.05;;;;;;;;;;4971758;28;20045;-31
2022/02/11 07:36:44;;;;;;;11.05;2.53;;;;;;;;;;4972844;28;20041;-31
2022/02/11 07:39:11;;;;;;;11.18;2.65;;;;;;;;;;4972346;28;20389;-29
2022/02/11 07:41:38;;;;;;;10.48;2.25;;;;;;;;;;4972508;28;20734;-29
2022/02/11 07:44:06;;;;;;;12.00;2.67;;;;;;;;;;4972394;28;20033;-29
2022/02/11 07:46:33;;;;;;;14.57;2.88;;;;;;;;;;4972655;28;20517;-31
2022/02/11 07:49:00;;;;;;;12.88;2.80;;;;;;;;;;4955117;28;20610;-29
2022/02/11 07:51:28;;;;;;;9.23;2.53;;;;;;;;;;4972011;28;20026;-29
2022/02/11 07:53:55;;;;;;;15.15;2.72;;;;;;;;;;4972642;28;20030;-29
2022/02/11 07:56:23;;;;;;;11.57;2.40;;;;;;;;;;4972139;28;20405;-29
2022/02/11 07:58:51;;;;;;;10.63;2.47;;;;;;;;;;4972664;28;20536;-29
2022/02/11 08:01:20;;;;;;;10.75;2.20;;;;;;;;;;4971630;28;20137;-29
2022/02/11 08:03:48;;;;;;;11.27;2.42;;;;;;;;;;4972152;28;20062;-29
2022/02/11 08:06:15;;;;;;;14.73;2.45;;;;;;;;;;4971423;28;20121;-31
2022/02/11 08:08:42;;;;;;;12.98;2.78;;;;;;;;;;4972472;28;20707;-29
2022/02/11 08:11:09;;;;;;;12.85;3.15;;;;;;;;;;4971968;28;20085;-30
2022/02/11 08:13:36;;;;;;;10.30;2.40;;;;;;;;;;4971709;28;20093;-31
2022/02/11 08:16:05;;;;;;;9.35;2.83;;;;;;;;;;4971105;28;20043;-31
2022/02/11 08:18:32;;;;;;;9.63;2.30;;;;;;;;;;4972750;28;20030;-31
2022/02/11 08:20:59;;;;;;;8.98;2.58;;;;;;;;;;4971759;28;20027;-30
2022/02/11 08:23:26;;;;;;;9.98;2.50;;;;;;;;;;4972032;28;20026;-31
2022/02/11 08:25:53;;;;;;;11.95;2.63;;;;;;;;;;4954486;28;20718;-30
2022/02/11 08:28:20;;;;;;;18.95;3.05;;;;;;;;;;4971654;28;20046;-31
2022/02/11 08:30:49;;;;;;;15.75;3.10;;;;;;;;;;4972064;28;20046;-29
2022/02/11 08:33:21;;;;;;;12.15;2.88;;;;;;;;;;4972030;28;20158;-31
2022/02/11 08:35:52;;;;;;;11.67;2.40;;;;;;;;;;4971953;28;20038;-31
2022/02/11 08:38:20;;;;;;;15.82;3.00;;;;;;;;;;4972204;28;20696;-29
2022/02/11 08:40:47;;;;;;;11.43;2.78;;;;;;;;;;4971632;28;20025;-29
2022/02/11 08:43:14;;;;;;;11.50;2.53;;;;;;;;;;4972052;28;20035;-29
2022/02/11 08:45:41;;;;;;;14.10;3.05;;;;;;;;;;4971546;28;20019;-29
2022/02/11 08:48:12;;;;;;;12.27;2.80;;;;;;;;;;4971541;28;20489;-29
2022/02/11 08:50:41;;;;;;;12.68;2.80;;;;;;;;;;4972449;28;20027;-29
2022/02/11 08:53:09;;;;;;;13.60;2.50;;;;;;;;;;4971035;28;20444;-29
2022/02/11 08:55:36;;;;;;;13.27;2.45;;;;;;;;;;4972097;28;20031;-29
2022/02/11 08:58:06;;;;;;;16.90;2.58;;;;;;;;;;4971079;28;20031;-31
2022/02/11 09:00:34;;;;;;;13.93;2.75;;;;;;;;;;4972018;28;20031;-31
2022/02/11 09:03:01;;;;;;;13.13;3.17;;;;;;;;;;4971684;28;20055;-30
2022/02/11 09:05:29;;;;;;;13.52;2.92;;;;;;;;;;4971204;28;20026;-31
2022/02/11 09:07:57;;;;;;;14.90;2.65;;;;;;;;;;4971605;28;20039;-31
2022/02/11 09:10:26;;;;;;;14.35;2.95;;;;;;;;;;4971231;28;20047;-31
2022/02/11 09:12:54;;;;;;;18.50;3.25;;;;;;;;;;4971614;28;20027;-30
2022/02/11 09:15:21;;;;;;;16.85;2.92;;;;;;;;;;4972092;28;20086;-29
2022/02/11 09:17:49;;;;;;;12.38;2.78;;;;;;;;;;4970616;28;20034;-29
2022/02/11 09:20:17;;;;;;;13.43;2.88;;;;;;;;;;4972081;28;20034;-29
2022/02/11 09:22:44;;;;;;;14.75;2.65;;;;;;;;;;4971174;28;20035;-29
2022/02/11 09:25:12;;;;;;;14.30;3.00;;;;;;;;;;4974073;28;20023;-31
2022/02/11 09:27:45;;;;;;;24.80;3.78;;;;;;;;;;4975189;28;20089;-31
2022/02/11 09:30:16;;;;;;;16.20;3.05;;;;;;;;;;4974458;28;20421;-31
2022/02/11 09:32:44;;;;;;;15.30;2.80;;;;;;;;;;4975669;28;20022;-31
2022/02/11 09:35:12;;;;;;;13.20;3.00;;;;;;;;;;4974112;28;20454;-30
2022/02/11 09:37:40;;;;;;;22.25;3.25;;;;;;;;;;4975283;28;20038;-29
2022/02/11 09:40:08;;;;;;;26.67;3.78;;;;;;;;;;4974503;28;20023;-29
2022/02/11 09:42:36;;;;;;;21.48;4.13;;;;;;;;;;4974765;28;20570;-29
2022/02/11 09:45:06;;;;;;;20.48;3.72;;;;;;;;;;4974887;28;20423;-29
2022/02/11 09:47:34;;;;;;;25.73;4.10;;;;;;;;;;4974192;28;20097;-29
2022/02/11 09:50:01;;;;;;;61.90;7.28;;;;;;;;;;4974584;28;20477;-29
2022/02/11 09:52:28;;;;;;;38.63;4.53;;;;;;;;;;4974683;28;20019;-29
2022/02/11 09:55:32;;;;;;;27.48;5.03;;;;;;;;;;4974244;28;20034;-29
2022/02/11 09:57:43;;;;;;;27.83;4.30;;;;;;;;;;4974597;28;20469;-29
2022/02/11 10:00:11;;;;;;;20.30;4.03;;;;;;;;;;4973525;28;20106;-30
2022/02/11 10:02:54;;;;;;;28.42;4.00;;;;;;;;;;4974729;28;20051;-31
2022/02/11 10:05:21;;;;;;;21.15;4.00;;;;;;;;;;4973953;28;20548;-29
2022/02/11 10:07:49;;;;;;;60.65;7.35;;;;;;;;;;4974313;28;20041;-29
2022/02/11 10:10:18;;;;;;;76.55;8.63;;;;;;;;;;4974255;28;20652;-29
2022/02/11 10:12:48;;;;;;;115.93;10.38;;;;;;;;;;4974664;28;20446;-29
2022/02/11 10:15:21;;;;;;;80.38;8.40;;;;;;;;;;4973191;28;20058;-30
2022/02/11 10:17:48;;;;;;;69.88;7.57;;;;;;;;;;4974522;28;20082;-31
2022/02/11 10:20:19;;;;;;;62.10;6.25;;;;;;;;;;4974137;28;20027;-31
2022/02/11 10:22:46;;;;;;;45.35;5.32;;;;;;;;;;4973810;28;20026;-31
2022/02/11 10:25:13;;;;;;;41.50;5.03;;;;;;;;;;4974509;28;20113;-31
2022/02/11 10:27:40;;;;;;;47.53;6.65;;;;;;;;;;4955120;28;20035;-31
2022/02/11 10:30:09;;;;;;;62.45;6.38;;;;;;;;;;4974437;28;20027;-31
2022/02/11 10:32:46;;;;;;;67.38;6.85;;;;;;;;;;4973621;28;20038;-31
2022/02/11 10:35:14;;;;;;;90.38;9.95;;;;;;;;;;4973358;28;20037;-30
2022/02/11 10:37:59;;;;;;;70.85;7.65;;;;;;;;;;4973165;28;20094;-29
2022/02/11 10:40:30;;;;;;;71.70;6.65;;;;;;;;;;4973395;28;20563;-29
2022/02/11 10:42:57;;;;;;;44.67;5.95;;;;;;;;;;4973500;28;20492;-31
2022/02/11 10:45:27;;;;;;;56.67;6.53;;;;;;;;;;4973536;28;20031;-32
2022/02/11 10:48:12;;;;;;;45.13;5.10;;;;;;;;;;4972998;28;20077;-31
2022/02/11 10:50:40;;;;;;;51.75;6.10;;;;;;;;;;4973004;28;20510;-31
2022/02/11 10:53:08;;;;;;;33.30;5.00;;;;;;;;;;4975444;28;20034;-31
2022/02/11 10:55:47;;;;;;;44.33;5.28;;;;;;;;;;4989444;28;20026;-30
2022/02/11 10:58:18;;;;;;;46.53;5.38;;;;;;;;;;4971126;28;20052;-33
2022/02/11 11:00:45;;;;;;;60.95;6.22;;;;;;;;;;4988858;28;20042;-30
2022/02/11 11:03:13;;;;;;;87.68;8.90;;;;;;;;;;4972381;28;20042;-30
2022/02/11 11:05:44;;;;;;;72.10;7.47;;;;;;;;;;4972059;28;20082;-30
2022/02/11 11:08:12;;;;;;;106.28;7.22;;;;;;;;;;4972518;28;20045;-35
2022/02/11 11:10:42;;;;;;;54.50;6.47;;;;;;;;;;4971505;28;20485;-34
2022/02/11 11:13:12;;;;;;;85.10;6.95;;;;;;;;;;4969780;28;20037;-31
2022/02/11 11:15:40;;;;;;;53.33;6.32;;;;;;;;;;4972548;28;20035;-30
2022/02/11 11:18:08;;;;;;;104.00;8.70;;;;;;;;;;4972179;28;20030;-32
2022/02/11 11:20:36;;;;;;;61.72;5.57;;;;;;;;;;4953995;28;20034;-34
2022/02/11 11:23:07;;;;;;;276.00;20.08;;;;;;;;;;4973606;28;20477;-34
2022/02/11 11:25:54;;;;;;;91.07;8.20;;;;;;;;;;4972746;28;20034;-35
2022/02/11 11:28:41;;;;;;;119.30;10.45;;;;;;;;;;4971350;28;20044;-33
2022/02/11 11:31:18;;;;;;;89.45;8.52;;;;;;;;;;4957844;28;20039;-33
2022/02/11 11:33:46;;;;;;;86.07;8.60;;;;;;;;;;4972550;28;20023;-31
2022/02/11 11:36:16;;;;;;;39.90;5.07;;;;;;;;;;4971698;28;20043;-33
2022/02/11 11:38:44;;;;;;;38.00;4.70;;;;;;;;;;4970621;28;20081;-31
2022/02/11 11:41:19;;;;;;;176.98;13.35;;;;;;;;;;4967518;28;20567;-33
2022/02/11 11:44:08;;;;;;;91.82;9.10;;;;;;;;;;4970429;28;20038;-31
2022/02/11 11:46:36;;;;;;;37.17;4.60;;;;;;;;;;4958369;28;20046;-33
2022/02/11 11:49:09;;;;;;;51.17;5.35;;;;;;;;;;4970625;28;20099;-33
2022/02/11 11:51:37;;;;;;;31.70;4.10;;;;;;;;;;4970281;28;20097;-31
2022/02/11 11:54:21;;;;;;;63.50;6.35;;;;;;;;;;4970949;28;20070;-31
2022/02/11 11:56:54;;;;;;;47.00;5.18;;;;;;;;;;4972336;28;20082;-31
2022/02/11 11:59:39;;;;;;;59.72;5.72;;;;;;;;;;4971835;28;20109;-31
2022/02/11 12:02:06;;;;;;;103.20;7.57;;;;;;;;;;4954003;28;20058;-31
2022/02/11 12:04:43;;;;;;;47.20;5.63;;;;;;;;;;4972172;28;20461;-31
2022/02/11 12:07:15;;;;;;;55.50;5.13;;;;;;;;;;4971915;28;20492;-31
2022/02/11 12:09:48;;;;;;;35.22;4.88;;;;;;;;;;4971964;28;20046;-31
2022/02/11 12:12:15;;;;;;;32.72;3.80;;;;;;;;;;4971831;28;20492;-31
2022/02/11 12:14:44;;;;;;;81.10;8.20;;;;;;;;;;4971541;28;20023;-31
2022/02/11 12:17:16;;;;;;;52.95;5.55;;;;;;;;;;4971627;28;20038;-31
2022/02/11 12:19:44;;;;;;;99.63;14.93;;;;;;;;;;4972010;28;20030;-31
2022/02/11 12:22:12;;;;;;;320.95;36.13;;;;;;;;;;4954174;28;20378;-31
2022/02/11 12:27:30;;;;;;;128.82;13.35;;;;;;;;;;4971712;28;20057;-31
2022/02/11 12:29:58;;;;;;;139.98;18.13;;;;;;;;;;4971500;28;20501;-31
2022/02/11 12:32:27;;;;;;;215.82;26.10;;;;;;;;;;4971703;28;20560;-31
2022/02/11 12:34:58;;;;;;;121.07;13.40;;;;;;;;;;4971593;28;20974;-31
2022/02/11 12:37:26;;;;;;;133.35;15.40;;;;;;;;;;4972272;28;20858;-31
2022/02/11 12:40:08;;;;;;;80.70;8.85;;;;;;;;;;4971607;28;20027;-31
2022/02/11 12:42:36;;;;;;;51.00;5.75;;;;;;;;;;4972081;28;20059;-31
2022/02/11 12:45:07;;;;;;;39.83;4.75;;;;;;;;;;4971877;28;20114;-31
2022/02/11 12:47:35;;;;;;;47.40;5.50;;;;;;;;;;4971211;28;20035;-31
2022/02/11 12:50:03;;;;;;;59.88;6.32;;;;;;;;;;4954497;28;20141;-31
2022/02/11 12:52:33;;;;;;;50.55;5.30;;;;;;;;;;4971448;28;20486;-31
2022/02/11 12:55:06;;;;;;;31.67;3.50;;;;;;;;;;4971179;28;20047;-32
2022/02/11 12:57:34;;;;;;;41.95;3.88;;;;;;;;;;4971619;28;20081;-32
2022/02/11 13:00:02;;;;;;;64.28;6.47;;;;;;;;;;4973423;28;20054;-32
2022/02/11 13:02:30;;;;;;;113.88;10.73;;;;;;;;;;4975378;28;20097;-32
2022/02/11 13:05:11;;;;;;;81.32;6.20;;;;;;;;;;4975272;28;20027;-32
2022/02/11 13:07:39;;;;;;;66.05;6.45;;;;;;;;;;4974704;28;20122;-32
2022/02/11 13:10:08;;;;;;;72.25;6.40;;;;;;;;;;4975021;28;20085;-32
2022/02/11 13:12:39;;;;;;;69.32;5.72;;;;;;;;;;4974899;28;20054;-32
2022/02/11 13:15:07;;;;;;;49.42;5.90;;;;;;;;;;4974875;28;20023;-32
2022/02/11 13:17:34;;;;;;;62.80;4.82;;;;;;;;;;4975125;28;20103;-32
2022/02/11 13:20:06;;;;;;;59.78;5.60;;;;;;;;;;4975078;28;20030;-33
2022/02/11 13:22:33;;;;;;;102.43;8.82;;;;;;;;;;4974644;28;20035;-33
2022/02/11 13:25:00;;;;;;;72.70;7.63;;;;;;;;;;4974843;28;20426;-32
2022/02/11 13:27:45;;;;;;;57.30;5.55;;;;;;;;;;4973120;28;20042;-33
2022/02/11 13:30:13;;;;;;;46.20;5.65;;;;;;;;;;4954752;29;20039;-33
2022/02/11 13:32:40;;;;;;;64.65;7.53;;;;;;;;;;4955420;29;20046;-32
2022/02/11 13:35:08;;;;;;;82.47;8.35;;;;;;;;;;4955339;29;20096;-32
2022/02/11 13:37:46;;;;;;;95.97;10.93;;;;;;;;;;4954652;29;20398;-32
2022/02/11 13:40:19;;;;;;;89.43;11.38;;;;;;;;;;4954681;29;20019;-32
2022/02/11 13:43:04;;;;;;;65.68;6.35;;;;;;;;;;4955244;29;20490;-31
2022/02/11 13:45:49;;;;;;;128.70;12.10;;;;;;;;;;4954244;29;20122;-33
2022/02/11 13:48:17;;;;;;;186.18;15.13;;;;;;;;;;4955189;29;20440;-32
2022/02/11 13:51:05;;;;;;;311.38;25.05;;;;;;;;;;4954801;29;20032;-32
2022/02/11 13:53:37;;;;;;;151.07;13.30;;;;;;;;;;4959239;28;20030;-32
2022/02/11 13:56:05;;;;;;;69.53;7.72;;;;;;;;;;4974069;28;20023;-32
2022/02/11 13:58:36;;;;;;;49.40;5.15;;;;;;;;;;4973856;28;20037;-32
2022/02/11 14:01:04;;;;;;;81.30;6.80;;;;;;;;;;4974002;28;20058;-32
2022/02/11 14:03:32;;;;;;;73.15;6.03;;;;;;;;;;4973759;28;20070;-32
2022/02/11 14:06:04;;;;;;;57.53;5.40;;;;;;;;;;4974247;28;20031;-32
2022/02/11 14:08:44;;;;;;;51.67;4.78;;;;;;;;;;4973838;28;20078;-32
2022/02/11 14:11:12;;;;;;;29.27;3.22;;;;;;;;;;4972572;28;20023;-33
2022/02/11 14:13:40;;;;;;;43.78;3.42;;;;;;;;;;4974190;28;20031;-32
2022/02/11 14:16:08;;;;;;;40.35;3.58;;;;;;;;;;4973696;28;20432;-33
2022/02/11 14:18:35;;;;;;;93.15;9.02;;;;;;;;;;4973575;28;20023;-32
2022/02/11 14:21:02;;;;;;;69.22;6.43;;;;;;;;;;4973753;28;20031;-32
2022/02/11 14:23:31;;;;;;;66.10;7.28;;;;;;;;;;4968542;28;20477;-31
2022/02/11 14:26:00;;;;;;;57.63;5.70;;;;;;;;;;4972445;28;20433;-30
2022/02/11 14:28:29;;;;;;;44.47;4.20;;;;;;;;;;4973630;28;20595;-31
2022/02/11 14:30:57;;;;;;;48.20;4.95;;;;;;;;;;4972606;28;20062;-31
2022/02/11 14:33:24;;;;;;;34.67;4.55;;;;;;;;;;4972413;28;20050;-31
2022/02/11 14:35:51;;;;;;;49.30;4.70;;;;;;;;;;4971878;28;20066;-30
2022/02/11 14:38:18;;;;;;;50.10;6.32;;;;;;;;;;4972506;28;20477;-30
2022/02/11 14:43:31;;;;;;;51.20;5.95;;;;;;;;;;4971255;28;20100;-32
2022/02/11 14:45:58;;;;;;;54.88;6.20;;;;;;;;;;4969515;28;20066;-30
2022/02/11 14:48:25;;;;;;;70.32;5.70;;;;;;;;;;4971835;28;20042;-32
2022/02/11 14:50:52;;;;;;;60.33;5.22;;;;;;;;;;4972315;28;20073;-30
2022/02/11 14:53:19;;;;;;;59.78;5.60;;;;;;;;;;4972413;28;20165;-31
2022/02/11 14:55:46;;;;;;;53.45;5.28;;;;;;;;;;4972069;28;20023;-30
2022/02/11 14:58:14;;;;;;;56.28;5.55;;;;;;;;;;4972674;28;20527;-30
2022/02/11 15:00:41;;;;;;;40.75;5.60;;;;;;;;;;4971596;28;20493;-32
2022/02/11 15:03:09;;;;;;;38.78;5.00;;;;;;;;;;4972480;28;20512;-30
2022/02/11 15:05:36;;;;;;;55.35;5.40;;;;;;;;;;4971893;28;20049;-31
2022/02/11 15:08:03;;;;;;;47.17;5.35;;;;;;;;;;4971647;28;20045;-30
2022/02/11 15:10:30;;;;;;;45.80;5.20;;;;;;;;;;4972193;28;20029;-30
2022/02/11 15:12:57;;;;;;;52.70;5.80;;;;;;;;;;4972439;28;20393;-30
2022/02/11 15:15:25;;;;;;;53.83;6.05;;;;;;;;;;4970863;28;20459;-31
2022/02/11 15:17:52;;;;;;;47.20;5.72;;;;;;;;;;4972743;28;20038;-31
2022/02/11 15:20:19;;;;;;;32.33;4.30;;;;;;;;;;4970986;28;20500;-31
2022/02/11 15:22:46;;;;;;;40.97;4.95;;;;;;;;;;4972513;28;20041;-31
2022/02/11 15:25:13;;;;;;;40.03;5.03;;;;;;;;;;4972342;28;20027;-31
2022/02/11 15:27:41;;;;;;;40.92;4.55;;;;;;;;;;4970324;28;20046;-31
2022/02/11 15:30:11;;;;;;;48.15;4.80;;;;;;;;;;4971167;28;20027;-31
2022/02/11 15:32:38;;;;;;;43.15;4.95;;;;;;;;;;4971435;28;20065;-31
2022/02/11 15:35:06;;;;;;;39.53;4.55;;;;;;;;;;4971875;28;20027;-31
2022/02/11 15:37:32;;;;;;;56.47;7.10;;;;;;;;;;4968837;28;20027;-31
2022/02/11 15:39:59;;;;;;;36.80;4.88;;;;;;;;;;4969804;28;20400;-31
2022/02/11 15:42:26;;;;;;;41.83;5.10;;;;;;;;;;4971540;28;20026;-31
2022/02/11 15:44:54;;;;;;;37.65;4.38;;;;;;;;;;4970336;28;20166;-31
2022/02/11 15:47:22;;;;;;;45.63;4.13;;;;;;;;;;4971173;28;20034;-32
2022/02/11 15:49:49;;;;;;;37.25;4.93;;;;;;;;;;4971251;28;20050;-31
2022/02/11 15:52:16;;;;;;;46.47;5.13;;;;;;;;;;4970748;28;20034;-31
2022/02/11 15:54:43;;;;;;;48.42;5.15;;;;;;;;;;4971736;28;20019;-31
2022/02/11 15:57:11;;;;;;;41.70;5.35;;;;;;;;;;4970464;28;20081;-32
2022/02/11 15:59:39;;;;;;;49.97;5.00;;;;;;;;;;4954219;28;20035;-32
2022/02/11 16:02:06;;;;;;;43.75;6.10;;;;;;;;;;4949812;28;20043;-32
2022/02/11 16:04:34;;;;;;;50.38;5.35;;;;;;;;;;4949684;29;20520;-30
2022/02/11 16:07:01;;;;;;;46.25;5.85;;;;;;;;;;4950927;28;20043;-31
2022/02/11 16:09:29;;;;;;;61.10;6.40;;;;;;;;;;4948553;29;20078;-30
2022/02/11 16:11:57;;;;;;;65.85;7.57;;;;;;;;;;4943585;29;20031;-31
2022/02/11 16:14:25;;;;;;;56.05;6.40;;;;;;;;;;4944988;29;20649;-32
2022/02/11 16:20:09;;;;;;;59.75;7.45;;;;;;;;;;5027917;28;20044;-33
2022/02/11 16:22:36;;;;;;;58.00;8.25;;;;;;;;;;5027848;28;20029;-33
2022/02/11 16:25:03;;;;;;;54.03;8.25;;;;;;;;;;5019563;28;20026;-33
2022/02/11 16:27:30;;;;;;;68.88;7.60;;;;;;;;;;5018984;28;20045;-33
2022/02/11 16:29:57;;;;;;;71.90;7.85;;;;;;;;;;5019319;28;20066;-33
2022/02/11 16:32:24;;;;;;;94.03;9.30;;;;;;;;;;5013474;28;20041;-33
2022/02/11 16:34:51;;;;;;;92.22;8.90;;;;;;;;;;5016209;28;20026;-33
2022/02/11 16:37:18;;;;;;;74.38;8.80;;;;;;;;;;5019482;28;20028;-33
2022/02/11 16:39:45;;;;;;;93.68;9.25;;;;;;;;;;5018359;28;20034;-33
2022/02/11 16:42:12;;;;;;;101.85;9.68;;;;;;;;;;5013910;28;20018;-33
2022/02/11 16:44:39;;;;;;;85.20;8.88;;;;;;;;;;5017192;28;20464;-33
2022/02/11 16:47:07;;;;;;;83.78;8.70;;;;;;;;;;5016602;28;20107;-33
2022/02/11 16:49:34;;;;;;;71.13;8.55;;;;;;;;;;5017514;28;20018;-33
2022/02/11 16:52:03;;;;;;;74.18;8.15;;;;;;;;;;5017140;28;20030;-32
2022/02/11 16:54:30;;;;;;;73.75;8.10;;;;;;;;;;5015214;28;20037;-32
2022/02/11 16:56:57;;;;;;;66.10;7.97;;;;;;;;;;5016616;28;20033;-32
2022/02/11 16:59:24;;;;;;;74.00;7.03;;;;;;;;;;5015416;28;20025;-33
2022/02/11 17:01:52;;;;;;;65.43;7.22;;;;;;;;;;5018102;28;20029;-34
2022/02/11 17:04:19;;;;;;;57.03;5.75;;;;;;;;;;5016858;28;20026;-33
2022/02/11 17:06:46;;;;;;;61.50;6.85;;;;;;;;;;5019791;28;20032;-33
2022/02/11 17:09:13;;;;;;;50.97;6.85;;;;;;;;;;5017759;28;20360;-34
2022/02/11 17:11:40;;;;;;;47.90;5.53;;;;;;;;;;5014667;28;20030;-33
2022/02/11 17:14:07;;;;;;;58.75;6.95;;;;;;;;;;5010126;28;20034;-33
2022/02/11 17:16:34;;;;;;;52.83;7.85;;;;;;;;;;5010417;28;20053;-33
2022/02/11 17:19:01;;;;;;;56.25;6.40;;;;;;;;;;5012670;28;20089;-33
2022/02/11 17:21:29;;;;;;;63.20;6.25;;;;;;;;;;5017248;28;20451;-33
2022/02/11 17:23:56;;;;;;;89.63;7.68;;;;;;;;;;5015051;28;20513;-33
2022/02/11 17:26:25;;;;;;;116.95;11.70;;;;;;;;;;5013520;28;20034;-33
2022/02/11 17:28:53;;;;;;;87.47;9.13;;;;;;;;;;5009883;28;20475;-35
2022/02/11 17:31:20;;;;;;;77.97;8.40;;;;;;;;;;5016474;28;20034;-33
2022/02/11 17:33:50;;;;;;;70.15;8.60;;;;;;;;;;5014225;28;20050;-34
2022/02/11 17:36:17;;;;;;;60.50;7.13;;;;;;;;;;5010111;28;20033;-34
2022/02/11 17:38:44;;;;;;;77.38;7.90;;;;;;;;;;5009301;28;20040;-34
2022/02/11 17:41:11;;;;;;;70.00;7.60;;;;;;;;;;5011624;28;20548;-34
2022/02/11 17:43:38;;;;;;;56.15;6.65;;;;;;;;;;5010821;28;20120;-34
2022/02/11 17:46:06;;;;;;;54.88;6.55;;;;;;;;;;5016264;28;20033;-34
2022/02/11 17:48:33;;;;;;;51.85;6.32;;;;;;;;;;5027709;28;20041;-34
2022/02/11 17:51:00;;;;;;;60.25;7.10;;;;;;;;;;5027545;28;20045;-33
2022/02/11 17:53:27;;;;;;;48.63;5.90;;;;;;;;;;5028436;28;20472;-33
2022/02/11 17:55:54;;;;;;;36.78;5.28;;;;;;;;;;5026083;28;20033;-33
2022/02/11 17:58:21;;;;;;;44.67;5.85;;;;;;;;;;5018250;28;20196;-36
2022/02/11 18:00:48;;;;;;;47.60;5.15;;;;;;;;;;5016914;28;20100;-35
2022/02/11 18:03:15;;;;;;;33.38;4.97;;;;;;;;;;5014931;28;20040;-36
2022/02/11 18:05:43;;;;;;;36.97;4.60;;;;;;;;;;4996797;28;20095;-36
2022/02/11 18:08:13;;;;;;;43.50;4.78;;;;;;;;;;5018620;28;20045;-42
2022/02/11 18:10:40;;;;;;;36.45;4.65;;;;;;;;;;5022919;28;20119;-36
2022/02/11 18:13:07;;;;;;;41.97;5.20;;;;;;;;;;5028970;28;20025;-36
2022/02/11 18:15:34;;;;;;;34.60;4.20;;;;;;;;;;5022613;28;20050;-36
2022/02/11 18:18:01;;;;;;;32.63;4.15;;;;;;;;;;5021313;28;20053;-36
2022/02/11 18:20:29;;;;;;;39.60;5.03;;;;;;;;;;5018365;28;20029;-35
2022/02/11 18:22:56;;;;;;;41.90;5.07;;;;;;;;;;5015450;28;20030;-36
2022/02/11 18:25:24;;;;;;;37.72;4.47;;;;;;;;;;5015436;28;20029;-37
2022/02/11 18:27:51;;;;;;;38.92;4.13;;;;;;;;;;4996905;28;20446;-38
2022/02/11 18:30:19;;;;;;;34.38;4.25;;;;;;;;;;5020696;28;20068;-36
2022/02/11 18:32:46;;;;;;;38.08;5.03;;;;;;;;;;5016142;28;20060;-36
2022/02/11 18:35:14;;;;;;;30.40;4.43;;;;;;;;;;5014607;28;20026;-35
2022/02/11 18:37:43;;;;;;;32.42;4.28;;;;;;;;;;5016594;28;20112;-34